Speculator, NY (12164)

1:29 AM EDT on May 28, 2015 (GMT -0400)
Village Motorsports - Speculator | | Change Station
CLOSE
Current Station
Personal Weather Station
Location: Speculator, NY
Elevation: 1768 ft
Nearby Weather Stations

Elev 1768 ft 43.50 °N, 74.37 °W | Updated 10 minutes ago

Overcast
Overcast
59.8 °F
Feels Like 59.8 °F
N
0.0
Wind Variable Wind from South

Today
High -- | Low -- °F
--% Chance of Precip.
Yesterday
High -- | Low -- °F
Precip. -- in
5:21 AM 8:28 PM
Waxing Gibbous, 73% visible
Pressure 30.05 in
Visibility 10.0 miles
Clouds Overcast 800 ft
Dew Point 56 °F
Humidity 87%
Rainfall 0.00 in
Snow Depth Not available.
UV 0 out of 12
Pollen 6.60 out of 12
Air Quality Not available.
Flu Activity Widespread
METAR KGFL 280453Z AUTO 19006KT 10SM OVC008 20/18 A3006 RMK AO2 SLP176 T02000183 402890200

More Conditions Fewer Conditions

Pressure 30.05 in
Visibility 10.0 miles
Clouds Overcast 800 ft
Dew Point 56 °F
Humidity 87%
Rainfall 0.00 in
Snow Depth Not available.
UV 0 out of 12
Pollen 6.60 out of 12
Air Quality Not available.
Flu Activity Widespread
METAR KGFL 280453Z AUTO 19006KT 10SM OVC008 20/18 A3006 RMK AO2 SLP176 T02000183 402890200

More Conditions Fewer Conditions

10-Day Weather Forecast

Almanac

Astronomy

May. 28, 2015 Rise Set
Actual Time
Civil Twilight
Nautical Twilight
Astronomical Twilight
Moon
Length of Visible Light
Length of Day
Tomorrow will be .
, % of the Moon is Illuminated

Today's Extremes

State Highs State Lows

Community

WunderPhotos

Upload Photos

1,824,927 photos uploaded!

WunderBlogs® & News

Nearby

Air Quality

  Air Quality AQ Index Pollutant
Not available.

Snow Depth

Station Depth Elevation

Earthquake Activity

City Distance Mag. Time & Date
Minimum magnitude displayed is 2.5.

Coastal Water Temperatures

Place Temperature

Stations

Nearby Weather Stations

Station Location Temp. Windchill Dew Point Humidity Wind Precip. Elev Updated Type